createdAt,value
2017-12-29T00:01:07.512Z,59.20
2017-12-29T00:03:35.825Z,59.20
2017-12-29T00:06:04.109Z,59.10
2017-12-29T00:08:32.377Z,59.00
2017-12-29T00:11:00.682Z,59.00
2017-12-29T00:13:28.954Z,59.00
2017-12-29T00:15:57.309Z,58.90
2017-12-29T00:18:25.568Z,59.10
2017-12-29T00:20:54.705Z,58.90
2017-12-29T00:23:22.985Z,58.90
2017-12-29T00:25:51.334Z,58.60
2017-12-29T00:28:19.610Z,58.30
2017-12-29T00:30:47.885Z,58.30
2017-12-29T00:33:16.185Z,58.40
2017-12-29T00:35:44.460Z,58.20
2017-12-29T00:38:13.957Z,58.10
2017-12-29T00:40:42.390Z,58.00
2017-12-29T00:43:11.449Z,57.90
2017-12-29T00:45:39.729Z,57.90
2017-12-29T00:48:08.029Z,57.90
2017-12-29T00:50:36.345Z,57.70
2017-12-29T00:53:04.705Z,57.70
2017-12-29T00:55:32.991Z,57.70
2017-12-29T00:58:01.421Z,57.60
2017-12-29T01:00:29.769Z,57.60
2017-12-29T01:02:58.037Z,57.60
2017-12-29T01:05:26.385Z,57.60
2017-12-29T01:07:54.731Z,57.60
2017-12-29T01:10:23.101Z,57.60
2017-12-29T01:12:51.438Z,57.50
2017-12-29T01:15:20.474Z,57.40
2017-12-29T01:17:49.451Z,57.40
2017-12-29T01:20:17.778Z,57.40
2017-12-29T01:22:46.062Z,57.60
2017-12-29T01:25:14.331Z,57.50
2017-12-29T01:27:42.663Z,57.30
2017-12-29T01:30:10.953Z,57.30
2017-12-29T01:32:39.232Z,57.20
2017-12-29T01:35:07.569Z,57.10
2017-12-29T01:37:36.610Z,57.10
2017-12-29T01:40:06.083Z,57.10
2017-12-29T01:42:34.835Z,56.90
2017-12-29T01:45:03.096Z,56.90
2017-12-29T01:47:43.133Z,56.80
2017-12-29T01:50:11.401Z,57.00
2017-12-29T01:52:39.700Z,56.80
2017-12-29T01:55:07.969Z,56.80
2017-12-29T01:57:36.243Z,57.00
2017-12-29T02:00:04.568Z,56.90
2017-12-29T02:02:32.839Z,56.80
2017-12-29T02:05:01.120Z,56.90
2017-12-29T02:07:30.136Z,56.90
2017-12-29T02:09:58.813Z,56.80
2017-12-29T02:12:27.834Z,56.70
2017-12-29T02:14:56.734Z,56.80
2017-12-29T02:17:25.020Z,56.80
2017-12-29T02:19:54.199Z,56.70
2017-12-29T02:22:22.909Z,56.60
2017-12-29T02:24:51.958Z,56.60
2017-12-29T02:27:20.208Z,56.50
2017-12-29T02:29:48.511Z,56.60
2017-12-29T02:32:16.777Z,56.60
2017-12-29T02:34:45.075Z,56.50
2017-12-29T02:37:13.336Z,56.40
2017-12-29T02:39:43.340Z,56.50
2017-12-29T02:42:11.618Z,56.50
2017-12-29T02:44:39.939Z,56.40
2017-12-29T02:47:08.203Z,56.20
2017-12-29T02:49:37.274Z,55.90
2017-12-29T02:52:05.555Z,55.90
2017-12-29T02:54:34.021Z,56.00
2017-12-29T02:57:02.336Z,56.10
2017-12-29T02:59:30.613Z,56.20
2017-12-29T03:01:59.758Z,56.70
2017-12-29T03:04:28.005Z,56.10
2017-12-29T03:06:56.316Z,56.00
2017-12-29T03:09:24.603Z,55.90
2017-12-29T03:11:52.974Z,55.80
2017-12-29T03:14:21.388Z,55.70
2017-12-29T03:16:50.083Z,55.60
2017-12-29T03:19:18.385Z,55.60
2017-12-29T03:21:46.662Z,55.60
2017-12-29T03:24:14.940Z,55.40
2017-12-29T03:26:43.241Z,55.30
2017-12-29T03:29:11.497Z,55.50
2017-12-29T03:31:39.787Z,55.60
2017-12-29T03:34:08.064Z,55.60
2017-12-29T03:36:36.354Z,55.60
2017-12-29T03:39:04.630Z,55.50
2017-12-29T03:41:33.038Z,55.30
2017-12-29T03:44:01.322Z,55.50
2017-12-29T03:46:29.613Z,55.60
2017-12-29T03:48:57.996Z,55.40
2017-12-29T03:51:26.297Z,55.60
2017-12-29T03:53:54.580Z,55.60
2017-12-29T03:56:22.939Z,55.50
2017-12-29T03:58:51.208Z,55.60
2017-12-29T04:01:19.488Z,55.40
2017-12-29T04:03:48.554Z,55.50
2017-12-29T04:06:35.482Z,55.50
2017-12-29T04:09:03.765Z,55.50
2017-12-29T04:11:32.029Z,55.50
2017-12-29T04:14:00.285Z,55.50
2017-12-29T04:16:29.357Z,55.40
2017-12-29T04:18:57.656Z,55.60
2017-12-29T04:21:25.994Z,55.50
2017-12-29T04:23:55.035Z,55.40
2017-12-29T04:26:23.352Z,55.40
2017-12-29T04:28:51.737Z,55.30
2017-12-29T04:31:20.484Z,55.40
2017-12-29T04:33:48.737Z,55.30
2017-12-29T04:36:17.070Z,55.30
2017-12-29T04:38:45.363Z,55.30
2017-12-29T04:41:14.427Z,55.30
2017-12-29T04:43:42.753Z,55.40
2017-12-29T04:46:11.020Z,55.20
2017-12-29T04:48:39.648Z,55.20
2017-12-29T04:51:07.913Z,55.40
2017-12-29T04:53:36.199Z,55.40
2017-12-29T04:56:04.545Z,55.40
2017-12-29T04:58:33.600Z,55.50
2017-12-29T05:01:01.901Z,55.50
2017-12-29T05:03:30.221Z,55.50
2017-12-29T05:05:58.525Z,55.50
2017-12-29T05:08:26.796Z,55.50
2017-12-29T05:10:55.103Z,55.50
2017-12-29T05:13:23.379Z,55.50
2017-12-29T05:15:51.628Z,55.60
2017-12-29T05:18:19.988Z,55.50
2017-12-29T05:20:48.421Z,56.20
2017-12-29T05:23:16.722Z,55.60
2017-12-29T05:25:45.018Z,55.20
2017-12-29T05:28:13.312Z,55.40
2017-12-29T05:30:41.593Z,55.50
2017-12-29T05:33:09.851Z,55.50
2017-12-29T05:35:38.145Z,55.40
2017-12-29T05:38:06.414Z,55.40
2017-12-29T05:40:34.701Z,55.40
2017-12-29T05:43:03.001Z,55.40
2017-12-29T05:45:31.298Z,55.50
2017-12-29T05:47:59.565Z,55.50
2017-12-29T05:50:27.914Z,56.10
2017-12-29T05:52:56.212Z,55.50
2017-12-29T05:55:24.573Z,55.40
2017-12-29T05:57:52.827Z,55.50
2017-12-29T06:00:21.105Z,55.30
2017-12-29T06:02:49.415Z,55.30
2017-12-29T06:05:17.760Z,55.40
2017-12-29T06:07:46.793Z,55.40
2017-12-29T06:10:15.046Z,55.40
2017-12-29T06:12:43.330Z,55.50
2017-12-29T06:15:11.614Z,55.30
2017-12-29T06:17:39.877Z,55.30
2017-12-29T06:20:08.172Z,55.40
2017-12-29T06:22:37.089Z,55.30
2017-12-29T06:25:05.398Z,55.40
2017-12-29T06:27:34.428Z,55.30
2017-12-29T06:30:02.713Z,55.30
2017-12-29T06:32:31.017Z,55.30
2017-12-29T06:34:59.277Z,55.30
2017-12-29T06:37:27.580Z,55.30
2017-12-29T06:39:55.877Z,55.10
2017-12-29T06:42:25.304Z,55.00
2017-12-29T06:44:53.879Z,55.00
2017-12-29T06:47:22.147Z,55.10
2017-12-29T06:49:50.742Z,55.10
2017-12-29T06:52:19.003Z,55.10
2017-12-29T06:54:48.044Z,55.20
2017-12-29T06:57:17.059Z,55.20
2017-12-29T06:59:45.357Z,55.20
2017-12-29T07:02:13.618Z,55.20
2017-12-29T07:04:41.924Z,55.10
2017-12-29T07:07:10.997Z,55.00
2017-12-29T07:09:39.457Z,55.00
2017-12-29T07:12:07.768Z,55.00
2017-12-29T07:14:36.054Z,55.00
2017-12-29T07:17:05.132Z,55.20
2017-12-29T07:19:33.397Z,55.10
2017-12-29T07:22:01.669Z,55.30
2017-12-29T07:24:29.973Z,55.20
2017-12-29T07:26:58.257Z,55.20
2017-12-29T07:29:32.096Z,55.30
2017-12-29T07:32:00.711Z,55.20
2017-12-29T07:34:29.315Z,55.10
2017-12-29T07:36:57.578Z,55.20
2017-12-29T07:39:25.876Z,55.10
2017-12-29T07:41:54.184Z,55.20
2017-12-29T07:44:22.426Z,55.20
2017-12-29T07:46:51.152Z,55.20
2017-12-29T07:49:20.160Z,55.10
2017-12-29T07:51:48.586Z,55.20
2017-12-29T07:54:16.883Z,55.10
2017-12-29T07:56:45.150Z,55.10
2017-12-29T07:59:13.522Z,55.10
2017-12-29T08:01:42.538Z,55.10
2017-12-29T08:04:10.917Z,55.00
2017-12-29T08:06:39.175Z,55.10
2017-12-29T08:09:07.468Z,55.00
2017-12-29T08:11:35.737Z,55.00
2017-12-29T08:14:04.025Z,55.20
2017-12-29T08:16:32.320Z,55.20
2017-12-29T08:19:01.382Z,55.00
2017-12-29T08:21:29.660Z,54.90
2017-12-29T08:23:57.940Z,55.00
2017-12-29T08:26:26.308Z,54.90
2017-12-29T08:28:54.544Z,55.00
2017-12-29T08:31:22.865Z,55.10
2017-12-29T08:33:51.153Z,55.10
2017-12-29T08:36:19.544Z,55.20
2017-12-29T08:38:47.917Z,55.20
2017-12-29T08:41:16.217Z,55.30
2017-12-29T08:43:45.281Z,55.30
2017-12-29T08:46:14.352Z,55.40
2017-12-29T08:48:42.640Z,55.40
2017-12-29T08:51:10.999Z,55.30
2017-12-29T08:53:39.323Z,55.00
2017-12-29T08:56:07.602Z,55.00
2017-12-29T08:58:35.877Z,55.00
2017-12-29T09:01:04.163Z,55.00
2017-12-29T09:03:32.438Z,54.80
2017-12-29T09:06:00.769Z,54.70
2017-12-29T09:08:29.868Z,54.90
2017-12-29T09:10:58.203Z,54.90
2017-12-29T09:13:26.497Z,54.80
2017-12-29T09:15:54.988Z,54.60
2017-12-29T09:18:23.305Z,54.50
2017-12-29T09:20:51.564Z,54.40
2017-12-29T09:23:19.857Z,54.20
2017-12-29T09:25:48.942Z,53.90
2017-12-29T09:28:18.100Z,53.90
2017-12-29T09:30:46.709Z,54.00
2017-12-29T09:33:14.977Z,53.80
2017-12-29T09:35:44.224Z,53.40
2017-12-29T09:38:12.670Z,53.70
2017-12-29T09:40:41.465Z,53.40
2017-12-29T09:43:09.825Z,53.30
2017-12-29T09:45:38.921Z,53.20
2017-12-29T09:48:07.254Z,53.20
2017-12-29T09:50:35.514Z,53.20
2017-12-29T09:53:03.839Z,53.10
2017-12-29T09:55:32.109Z,53.40
2017-12-29T09:58:00.449Z,53.30
2017-12-29T10:00:28.729Z,53.20
2017-12-29T10:02:57.046Z,53.10
2017-12-29T10:05:25.340Z,53.10
2017-12-29T10:07:53.589Z,53.10
2017-12-29T10:10:22.670Z,53.30
2017-12-29T10:12:51.540Z,53.10
2017-12-29T10:15:20.798Z,53.00
2017-12-29T10:17:49.831Z,53.00
2017-12-29T10:20:18.479Z,53.00
2017-12-29T10:22:46.817Z,53.10
2017-12-29T10:25:15.158Z,52.90
2017-12-29T10:27:45.461Z,52.90
2017-12-29T10:30:13.741Z,52.90
2017-12-29T10:32:42.055Z,53.10
2017-12-29T10:35:10.313Z,52.70
2017-12-29T10:37:38.581Z,52.90
2017-12-29T10:40:07.636Z,52.70
2017-12-29T10:42:36.706Z,52.80
2017-12-29T10:45:05.161Z,52.70
2017-12-29T10:47:34.253Z,52.70
2017-12-29T10:50:02.605Z,52.70
2017-12-29T10:52:32.468Z,52.90
2017-12-29T10:55:00.764Z,52.60
2017-12-29T10:57:29.033Z,52.50
2017-12-29T10:59:57.297Z,52.60
2017-12-29T11:02:26.348Z,52.80
2017-12-29T11:04:54.627Z,52.70
2017-12-29T11:07:22.936Z,53.10
2017-12-29T11:09:51.238Z,52.80
2017-12-29T11:12:19.557Z,52.60
2017-12-29T11:14:47.863Z,52.60
2017-12-29T11:17:16.545Z,52.50
2017-12-29T11:19:45.565Z,52.40
2017-12-29T11:22:17.462Z,52.50
2017-12-29T11:24:46.792Z,52.30
2017-12-29T11:27:15.057Z,52.20
2017-12-29T11:29:43.367Z,52.20
2017-12-29T11:32:11.811Z,52.10
2017-12-29T11:34:40.389Z,52.20
2017-12-29T11:37:08.649Z,52.00
2017-12-29T11:39:36.917Z,51.90
2017-12-29T11:42:05.230Z,51.90
2017-12-29T11:44:33.652Z,51.90
2017-12-29T11:47:01.976Z,51.90
2017-12-29T11:49:30.236Z,51.90
2017-12-29T11:51:58.530Z,51.80
2017-12-29T11:54:26.825Z,52.10
2017-12-29T11:56:56.170Z,52.00
2017-12-29T11:59:25.182Z,53.30
2017-12-29T12:01:53.460Z,53.30
2017-12-29T12:04:21.790Z,53.00
2017-12-29T12:06:50.602Z,52.00
2017-12-29T12:09:19.684Z,49.70
2017-12-29T12:11:47.997Z,49.60
2017-12-29T12:14:16.435Z,50.10
2017-12-29T12:16:45.584Z,49.40
2017-12-29T12:19:14.372Z,49.60
2017-12-29T12:21:42.774Z,48.50
2017-12-29T12:24:11.036Z,46.20
2017-12-29T12:26:39.374Z,44.80
2017-12-29T12:29:07.652Z,45.00
2017-12-29T12:31:35.970Z,43.30
2017-12-29T12:34:04.717Z,42.00
2017-12-29T12:36:33.212Z,41.40
2017-12-29T12:39:02.391Z,41.50
2017-12-29T12:41:31.208Z,41.50
2017-12-29T12:43:59.580Z,40.10
2017-12-29T12:46:28.009Z,39.10
2017-12-29T12:48:56.483Z,38.00
2017-12-29T12:51:24.766Z,37.70
2017-12-29T12:53:53.357Z,37.70
2017-12-29T12:56:21.804Z,38.10
2017-12-29T12:58:50.585Z,37.70
2017-12-29T13:01:18.844Z,37.20
2017-12-29T13:03:47.975Z,34.80
2017-12-29T13:06:16.285Z,34.90
2017-12-29T13:08:45.418Z,35.40
2017-12-29T13:11:15.362Z,36.60
2017-12-29T13:13:44.394Z,37.50
2017-12-29T13:16:13.557Z,37.40
2017-12-29T13:18:41.870Z,38.30
2017-12-29T13:21:10.490Z,39.70
2017-12-29T13:23:38.978Z,40.20
2017-12-29T13:26:08.130Z,41.30
2017-12-29T13:28:36.441Z,41.30
2017-12-29T13:31:04.936Z,41.60
2017-12-29T13:33:34.182Z,42.20
2017-12-29T13:36:02.569Z,42.20
2017-12-29T13:38:30.914Z,42.50
2017-12-29T13:40:59.274Z,42.80
2017-12-29T13:43:28.608Z,43.20
2017-12-29T13:45:56.877Z,43.30
2017-12-29T13:48:25.159Z,43.60
2017-12-29T13:50:53.461Z,43.60
2017-12-29T13:53:21.734Z,43.80
2017-12-29T13:55:50.084Z,43.90
2017-12-29T13:58:18.399Z,44.00
2017-12-29T14:00:47.089Z,44.30
2017-12-29T14:03:15.466Z,44.40
2017-12-29T14:05:43.795Z,44.60
2017-12-29T14:08:12.968Z,44.80
2017-12-29T14:10:41.287Z,44.80
2017-12-29T14:13:12.640Z,45.00
2017-12-29T14:15:41.105Z,45.20
2017-12-29T14:18:11.896Z,45.30
2017-12-29T14:20:40.530Z,45.40
2017-12-29T14:23:08.958Z,45.40
2017-12-29T14:25:37.301Z,45.60
2017-12-29T14:28:05.597Z,45.60
2017-12-29T14:30:35.954Z,45.60
2017-12-29T14:33:04.327Z,45.60
2017-12-29T14:35:32.798Z,45.70
2017-12-29T14:38:01.722Z,45.80
2017-12-29T14:40:30.068Z,45.90
2017-12-29T14:42:58.371Z,46.10
2017-12-29T14:45:26.635Z,46.10
2017-12-29T14:47:54.940Z,46.10
2017-12-29T14:50:23.266Z,46.10
2017-12-29T14:52:51.982Z,46.10
2017-12-29T14:55:20.247Z,46.20
2017-12-29T14:57:48.544Z,46.30
2017-12-29T15:00:16.895Z,46.40
2017-12-29T15:02:45.198Z,46.40
2017-12-29T15:05:13.520Z,46.40
2017-12-29T15:07:41.825Z,46.30
2017-12-29T15:10:10.113Z,46.50
2017-12-29T15:12:41.049Z,46.50
2017-12-29T15:15:09.612Z,46.50
2017-12-29T15:17:37.933Z,46.50
2017-12-29T15:20:06.193Z,46.50
2017-12-29T15:22:34.548Z,46.60
2017-12-29T15:25:02.928Z,46.60
2017-12-29T15:27:31.216Z,46.70
2017-12-29T15:29:59.529Z,46.70
2017-12-29T15:32:27.873Z,46.80
2017-12-29T15:34:56.137Z,46.80
2017-12-29T15:37:28.833Z,46.80
2017-12-29T15:39:57.122Z,46.80
2017-12-29T15:42:25.406Z,47.00
2017-12-29T15:44:57.444Z,47.00
2017-12-29T15:47:25.774Z,47.20
2017-12-29T15:49:54.124Z,47.10
2017-12-29T15:52:22.410Z,47.20
2017-12-29T15:54:50.710Z,47.20
2017-12-29T15:57:18.990Z,47.20
2017-12-29T15:59:47.550Z,47.40
2017-12-29T16:02:15.827Z,47.40
2017-12-29T16:04:45.820Z,47.70
2017-12-29T16:07:14.218Z,47.60
2017-12-29T16:09:42.502Z,47.70
2017-12-29T16:12:10.809Z,47.70
2017-12-29T16:14:39.066Z,47.70
2017-12-29T16:17:07.626Z,47.90
2017-12-29T16:19:35.902Z,47.90
2017-12-29T16:22:04.177Z,47.90
2017-12-29T16:24:32.582Z,48.00
2017-12-29T16:27:00.839Z,48.10
2017-12-29T16:29:29.146Z,48.10
2017-12-29T16:31:57.422Z,48.20
2017-12-29T16:34:25.973Z,48.30
2017-12-29T16:36:54.246Z,48.40
2017-12-29T16:39:22.870Z,48.40
2017-12-29T16:41:51.754Z,48.50
2017-12-29T16:44:20.582Z,48.50
2017-12-29T16:46:50.372Z,48.60
2017-12-29T16:49:18.645Z,48.60
2017-12-29T16:51:47.084Z,48.60
2017-12-29T16:54:15.343Z,48.80
2017-12-29T16:56:43.665Z,48.80
2017-12-29T16:59:12.696Z,48.70
2017-12-29T17:01:42.227Z,48.90
2017-12-29T17:04:10.514Z,49.30
2017-12-29T17:06:38.786Z,48.70
2017-12-29T17:09:07.912Z,48.60
2017-12-29T17:11:36.924Z,48.60
2017-12-29T17:14:05.213Z,48.70
2017-12-29T17:16:33.790Z,48.70
2017-12-29T17:19:04.255Z,48.90
2017-12-29T17:21:33.519Z,48.90
2017-12-29T17:24:03.762Z,49.10
2017-12-29T17:26:32.033Z,49.20
2017-12-29T17:29:02.496Z,49.50
2017-12-29T17:31:30.850Z,49.30
2017-12-29T17:34:02.622Z,49.40
2017-12-29T17:36:31.737Z,49.40
2017-12-29T17:39:00.094Z,49.50
2017-12-29T17:41:29.614Z,49.70
2017-12-29T17:43:57.937Z,49.70
2017-12-29T17:46:27.164Z,49.70
2017-12-29T17:48:55.460Z,49.70
2017-12-29T17:51:24.575Z,49.70
2017-12-29T17:53:53.172Z,49.70
2017-12-29T17:56:21.438Z,49.80
2017-12-29T17:58:49.807Z,49.80
2017-12-29T18:01:19.190Z,49.80
2017-12-29T18:03:50.557Z,49.80
2017-12-29T18:06:18.959Z,49.80
2017-12-29T18:08:47.246Z,50.00
2017-12-29T18:11:15.565Z,50.00
2017-12-29T18:13:43.828Z,50.00
2017-12-29T18:16:12.175Z,50.70
2017-12-29T18:18:41.417Z,50.10
2017-12-29T18:21:13.563Z,50.10
2017-12-29T18:23:42.010Z,50.20
2017-12-29T18:26:11.991Z,50.20
2017-12-29T18:28:40.366Z,50.40
2017-12-29T18:31:10.444Z,50.30
2017-12-29T18:33:42.005Z,51.10
2017-12-29T18:36:10.284Z,50.50
2017-12-29T18:38:38.576Z,50.40
2017-12-29T18:41:06.846Z,50.30
2017-12-29T18:43:35.591Z,50.30
2017-12-29T18:46:03.850Z,50.40
2017-12-29T18:48:32.103Z,50.50
2017-12-29T18:51:00.419Z,50.50
2017-12-29T18:53:29.478Z,51.30
2017-12-29T18:55:58.259Z,50.70
2017-12-29T18:58:26.534Z,50.60
2017-12-29T19:00:54.857Z,50.70
2017-12-29T19:03:23.176Z,50.70
2017-12-29T19:05:51.736Z,50.70
2017-12-29T19:08:20.783Z,50.70
2017-12-29T19:10:49.070Z,50.70
2017-12-29T19:13:17.597Z,50.80
2017-12-29T19:15:46.046Z,50.90
2017-12-29T19:18:14.410Z,50.90
2017-12-29T19:20:42.815Z,51.00
2017-12-29T19:23:11.513Z,51.00
2017-12-29T19:25:40.819Z,50.90
2017-12-29T19:28:09.392Z,51.00
2017-12-29T19:30:37.722Z,50.90
2017-12-29T19:33:06.064Z,50.90
2017-12-29T19:35:34.416Z,51.00
2017-12-29T19:38:02.713Z,50.90
2017-12-29T19:40:31.984Z,50.90
2017-12-29T19:43:00.333Z,50.80
2017-12-29T19:45:29.832Z,50.90
2017-12-29T19:48:00.080Z,50.90
2017-12-29T19:50:29.065Z,50.90
2017-12-29T19:52:57.403Z,50.90
2017-12-29T19:55:25.759Z,50.90
2017-12-29T19:57:54.069Z,51.10
2017-12-29T20:00:22.512Z,51.00
2017-12-29T20:02:51.872Z,51.10
2017-12-29T20:05:20.148Z,51.00
2017-12-29T20:07:48.426Z,51.10
2017-12-29T20:10:16.730Z,51.10
2017-12-29T20:12:45.024Z,51.10
2017-12-29T20:15:13.446Z,51.10
2017-12-29T20:17:42.483Z,51.20
2017-12-29T20:20:11.458Z,51.20
2017-12-29T20:22:39.761Z,51.30
2017-12-29T20:25:08.401Z,51.30
2017-12-29T20:27:36.658Z,51.50
2017-12-29T20:30:06.534Z,51.50
2017-12-29T20:32:34.853Z,51.40
2017-12-29T20:35:03.220Z,51.40
2017-12-29T20:37:31.649Z,51.60
2017-12-29T20:40:00.028Z,51.50
2017-12-29T20:42:28.725Z,51.40
2017-12-29T20:44:57.100Z,51.60
2017-12-29T20:47:25.436Z,51.50
2017-12-29T20:49:54.871Z,51.50
2017-12-29T20:52:23.321Z,51.60
2017-12-29T20:54:55.109Z,51.60
2017-12-29T20:57:23.430Z,51.70
2017-12-29T20:59:53.192Z,51.60
2017-12-29T21:02:22.254Z,51.60
2017-12-29T21:04:50.636Z,51.60
2017-12-29T21:07:20.095Z,51.60
2017-12-29T21:09:48.523Z,51.90
2017-12-29T21:12:18.976Z,51.90
2017-12-29T21:14:48.939Z,51.80
2017-12-29T21:17:17.323Z,52.00
2017-12-29T21:19:45.730Z,52.00
2017-12-29T21:22:14.330Z,51.90
2017-12-29T21:24:43.416Z,52.10
2017-12-29T21:27:13.647Z,51.80
2017-12-29T21:29:41.939Z,51.80
2017-12-29T21:32:10.341Z,51.80
2017-12-29T21:34:38.638Z,52.00
2017-12-29T21:37:09.438Z,51.90
2017-12-29T21:39:37.762Z,52.00
2017-12-29T21:42:06.149Z,52.10
2017-12-29T21:44:34.829Z,52.10
2017-12-29T21:47:04.092Z,52.20
2017-12-29T21:49:32.384Z,52.10
2017-12-29T21:52:00.686Z,52.10
2017-12-29T21:54:29.278Z,52.10
2017-12-29T21:56:57.585Z,52.10
2017-12-29T21:59:26.418Z,52.10
2017-12-29T22:01:55.067Z,52.10
2017-12-29T22:04:23.360Z,52.10
2017-12-29T22:06:52.465Z,52.10
2017-12-29T22:09:20.794Z,52.20
2017-12-29T22:11:49.694Z,52.10
2017-12-29T22:14:18.599Z,52.00
2017-12-29T22:16:47.649Z,52.70
2017-12-29T22:19:16.336Z,52.10
2017-12-29T22:21:44.606Z,52.20
2017-12-29T22:24:12.887Z,52.20
2017-12-29T22:26:42.092Z,52.20
2017-12-29T22:29:10.364Z,52.20
2017-12-29T22:31:39.296Z,52.20
2017-12-29T22:34:07.586Z,52.10
2017-12-29T22:36:36.625Z,52.20
2017-12-29T22:39:05.011Z,52.10
2017-12-29T22:41:33.565Z,52.10
2017-12-29T22:44:02.089Z,52.20
2017-12-29T22:46:30.377Z,52.10
2017-12-29T22:48:58.677Z,52.10
2017-12-29T22:51:26.954Z,52.10
2017-12-29T22:53:55.254Z,52.10
2017-12-29T22:56:23.755Z,52.10
2017-12-29T22:58:52.404Z,52.20
2017-12-29T23:01:21.655Z,52.20
2017-12-29T23:03:49.942Z,52.20
2017-12-29T23:06:18.767Z,52.20
2017-12-29T23:08:47.115Z,52.10
2017-12-29T23:11:15.499Z,52.20
2017-12-29T23:13:43.917Z,52.20
2017-12-29T23:16:12.804Z,52.20
2017-12-29T23:18:41.157Z,52.10
2017-12-29T23:21:09.422Z,52.10
2017-12-29T23:23:38.409Z,52.00
2017-12-29T23:26:06.680Z,52.00
2017-12-29T23:28:34.977Z,52.00
2017-12-29T23:31:03.260Z,52.00
2017-12-29T23:33:31.565Z,51.90
2017-12-29T23:35:59.839Z,51.90
2017-12-29T23:38:28.394Z,51.90
2017-12-29T23:40:56.733Z,51.60
2017-12-29T23:43:25.150Z,51.90
2017-12-29T23:45:53.481Z,51.90
2017-12-29T23:48:21.811Z,51.90
2017-12-29T23:50:50.103Z,51.80
2017-12-29T23:53:18.387Z,51.70
2017-12-29T23:55:47.074Z,51.70
2017-12-29T23:58:15.352Z,51.70
